sensor_id;sensor_type;location;lat;lon;timestamp;P1;durP1;ratioP1;P2;durP2;ratioP2
10430;SDS011;5262;59.958;17.726;2022-10-18T00:01:04;2.57;;;0.80;;
10430;SDS011;5262;59.958;17.726;2022-10-18T00:03:30;4.00;;;0.70;;
10430;SDS011;5262;59.958;17.726;2022-10-18T00:05:57;2.53;;;0.80;;
10430;SDS011;5262;59.958;17.726;2022-10-18T00:08:23;5.57;;;1.00;;
10430;SDS011;5262;59.958;17.726;2022-10-18T00:10:49;2.20;;;0.80;;
10430;SDS011;5262;59.958;17.726;2022-10-18T00:13:15;1.43;;;0.70;;
10430;SDS011;5262;59.958;17.726;2022-10-18T00:15:48;4.17;;;1.00;;
10430;SDS011;5262;59.958;17.726;2022-10-18T00:18:15;2.27;;;0.80;;
10430;SDS011;5262;59.958;17.726;2022-10-18T00:20:41;3.23;;;0.87;;
10430;SDS011;5262;59.958;17.726;2022-10-18T00:23:07;4.83;;;0.93;;
10430;SDS011;5262;59.958;17.726;2022-10-18T00:25:32;3.67;;;0.93;;
10430;SDS011;5262;59.958;17.726;2022-10-18T00:27:58;3.43;;;1.03;;
10430;SDS011;5262;59.958;17.726;2022-10-18T00:30:24;3.33;;;0.90;;
10430;SDS011;5262;59.958;17.726;2022-10-18T00:32:49;3.30;;;0.63;;
10430;SDS011;5262;59.958;17.726;2022-10-18T00:35:15;5.33;;;1.20;;
10430;SDS011;5262;59.958;17.726;2022-10-18T00:37:41;2.57;;;0.87;;
10430;SDS011;5262;59.958;17.726;2022-10-18T00:40:07;5.30;;;0.80;;
10430;SDS011;5262;59.958;17.726;2022-10-18T00:42:34;2.53;;;1.00;;
10430;SDS011;5262;59.958;17.726;2022-10-18T00:47:48;1.50;;;0.93;;
10430;SDS011;5262;59.958;17.726;2022-10-18T00:50:18;3.07;;;0.70;;
10430;SDS011;5262;59.958;17.726;2022-10-18T00:52:46;3.03;;;0.80;;
10430;SDS011;5262;59.958;17.726;2022-10-18T00:55:22;2.53;;;1.20;;
10430;SDS011;5262;59.958;17.726;2022-10-18T00:57:49;4.57;;;1.00;;
10430;SDS011;5262;59.958;17.726;2022-10-18T01:00:15;4.07;;;0.80;;
10430;SDS011;5262;59.958;17.726;2022-10-18T01:02:43;5.27;;;0.77;;
10430;SDS011;5262;59.958;17.726;2022-10-18T01:05:11;3.37;;;0.80;;
10430;SDS011;5262;59.958;17.726;2022-10-18T01:10:25;5.13;;;1.20;;
10430;SDS011;5262;59.958;17.726;2022-10-18T01:15:50;4.13;;;0.80;;
10430;SDS011;5262;59.958;17.726;2022-10-18T01:21:06;1.43;;;0.70;;
10430;SDS011;5262;59.958;17.726;2022-10-18T01:29:29;5.93;;;0.80;;
10430;SDS011;5262;59.958;17.726;2022-10-18T01:32:20;4.17;;;0.70;;
10430;SDS011;5262;59.958;17.726;2022-10-18T01:34:25;0.73;;;0.50;;
10430;SDS011;5262;59.958;17.726;2022-10-18T01:36:55;3.73;;;0.90;;
10430;SDS011;5262;59.958;17.726;2022-10-18T01:39:25;3.20;;;0.70;;
10430;SDS011;5262;59.958;17.726;2022-10-18T01:41:55;2.23;;;0.50;;
10430;SDS011;5262;59.958;17.726;2022-10-18T01:44:25;1.77;;;0.70;;
10430;SDS011;5262;59.958;17.726;2022-10-18T01:46:52;4.40;;;0.90;;
10430;SDS011;5262;59.958;17.726;2022-10-18T01:49:20;2.10;;;0.70;;
10430;SDS011;5262;59.958;17.726;2022-10-18T01:51:46;2.67;;;0.80;;
10430;SDS011;5262;59.958;17.726;2022-10-18T01:54:13;1.80;;;0.67;;
10430;SDS011;5262;59.958;17.726;2022-10-18T02:06:50;3.60;;;0.90;;
10430;SDS011;5262;59.958;17.726;2022-10-18T02:09:39;0.87;;;0.60;;
10430;SDS011;5262;59.958;17.726;2022-10-18T02:12:10;4.47;;;0.90;;
10430;SDS011;5262;59.958;17.726;2022-10-18T02:14:38;5.13;;;1.17;;
10430;SDS011;5262;59.958;17.726;2022-10-18T02:17:07;1.17;;;0.70;;
10430;SDS011;5262;59.958;17.726;2022-10-18T02:22:04;2.73;;;0.80;;
10430;SDS011;5262;59.958;17.726;2022-10-18T02:24:34;1.77;;;1.00;;
10430;SDS011;5262;59.958;17.726;2022-10-18T02:27:13;2.83;;;0.90;;
10430;SDS011;5262;59.958;17.726;2022-10-18T02:29:39;3.43;;;0.80;;
10430;SDS011;5262;59.958;17.726;2022-10-18T02:32:15;2.70;;;0.90;;
10430;SDS011;5262;59.958;17.726;2022-10-18T02:34:46;3.73;;;1.00;;
10430;SDS011;5262;59.958;17.726;2022-10-18T02:37:18;4.73;;;1.20;;
10430;SDS011;5262;59.958;17.726;2022-10-18T02:39:45;3.30;;;0.80;;
10430;SDS011;5262;59.958;17.726;2022-10-18T02:42:13;2.20;;;0.77;;
10430;SDS011;5262;59.958;17.726;2022-10-18T02:44:39;1.60;;;0.90;;
10430;SDS011;5262;59.958;17.726;2022-10-18T02:47:05;2.87;;;0.80;;
10430;SDS011;5262;59.958;17.726;2022-10-18T02:49:33;4.60;;;1.00;;
10430;SDS011;5262;59.958;17.726;2022-10-18T02:51:59;3.60;;;1.30;;
10430;SDS011;5262;59.958;17.726;2022-10-18T02:54:25;2.93;;;0.90;;
10430;SDS011;5262;59.958;17.726;2022-10-18T02:56:50;3.97;;;1.00;;
10430;SDS011;5262;59.958;17.726;2022-10-18T02:59:16;4.43;;;0.90;;
10430;SDS011;5262;59.958;17.726;2022-10-18T03:01:42;2.50;;;0.80;;
10430;SDS011;5262;59.958;17.726;2022-10-18T03:04:07;7.27;;;1.20;;
10430;SDS011;5262;59.958;17.726;2022-10-18T03:06:33;1.93;;;0.87;;
10430;SDS011;5262;59.958;17.726;2022-10-18T03:09:03;3.63;;;1.10;;
10430;SDS011;5262;59.958;17.726;2022-10-18T03:11:29;5.93;;;1.30;;
10430;SDS011;5262;59.958;17.726;2022-10-18T03:13:55;4.60;;;1.23;;
10430;SDS011;5262;59.958;17.726;2022-10-18T03:16:21;5.00;;;1.57;;
10430;SDS011;5262;59.958;17.726;2022-10-18T03:18:46;2.00;;;0.90;;
10430;SDS011;5262;59.958;17.726;2022-10-18T03:21:12;3.97;;;0.93;;
10430;SDS011;5262;59.958;17.726;2022-10-18T03:23:38;3.33;;;1.43;;
10430;SDS011;5262;59.958;17.726;2022-10-18T03:26:05;5.27;;;1.37;;
10430;SDS011;5262;59.958;17.726;2022-10-18T03:28:31;2.97;;;1.07;;
10430;SDS011;5262;59.958;17.726;2022-10-18T03:31:00;3.10;;;1.17;;
10430;SDS011;5262;59.958;17.726;2022-10-18T03:33:27;2.83;;;1.27;;
10430;SDS011;5262;59.958;17.726;2022-10-18T03:35:53;3.50;;;1.23;;
10430;SDS011;5262;59.958;17.726;2022-10-18T03:38:18;1.80;;;1.00;;
10430;SDS011;5262;59.958;17.726;2022-10-18T03:40:44;3.80;;;1.10;;
10430;SDS011;5262;59.958;17.726;2022-10-18T03:43:10;3.23;;;1.17;;
10430;SDS011;5262;59.958;17.726;2022-10-18T03:45:35;4.57;;;1.20;;
10430;SDS011;5262;59.958;17.726;2022-10-18T03:48:01;2.33;;;1.20;;
10430;SDS011;5262;59.958;17.726;2022-10-18T03:50:27;2.63;;;1.30;;
10430;SDS011;5262;59.958;17.726;2022-10-18T03:52:52;5.07;;;1.60;;
10430;SDS011;5262;59.958;17.726;2022-10-18T03:55:19;2.97;;;1.10;;
10430;SDS011;5262;59.958;17.726;2022-10-18T03:57:45;3.27;;;1.00;;
10430;SDS011;5262;59.958;17.726;2022-10-18T04:00:11;1.93;;;1.00;;
10430;SDS011;5262;59.958;17.726;2022-10-18T04:02:37;2.83;;;1.20;;
10430;SDS011;5262;59.958;17.726;2022-10-18T04:05:02;2.27;;;1.00;;
10430;SDS011;5262;59.958;17.726;2022-10-18T04:07:28;4.30;;;1.27;;
10430;SDS011;5262;59.958;17.726;2022-10-18T04:09:54;3.33;;;1.13;;
10430;SDS011;5262;59.958;17.726;2022-10-18T04:12:19;2.23;;;1.10;;
10430;SDS011;5262;59.958;17.726;2022-10-18T04:14:45;1.83;;;0.97;;
10430;SDS011;5262;59.958;17.726;2022-10-18T04:17:11;6.43;;;1.60;;
10430;SDS011;5262;59.958;17.726;2022-10-18T04:19:37;4.17;;;1.40;;
10430;SDS011;5262;59.958;17.726;2022-10-18T04:22:02;4.37;;;1.30;;
10430;SDS011;5262;59.958;17.726;2022-10-18T04:24:28;2.50;;;1.50;;
10430;SDS011;5262;59.958;17.726;2022-10-18T04:26:53;4.77;;;1.50;;
10430;SDS011;5262;59.958;17.726;2022-10-18T04:29:19;2.90;;;1.50;;
10430;SDS011;5262;59.958;17.726;2022-10-18T04:31:45;3.30;;;1.40;;
10430;SDS011;5262;59.958;17.726;2022-10-18T04:34:11;3.80;;;1.40;;
10430;SDS011;5262;59.958;17.726;2022-10-18T04:36:36;2.50;;;1.17;;
10430;SDS011;5262;59.958;17.726;2022-10-18T04:39:02;5.13;;;1.10;;
10430;SDS011;5262;59.958;17.726;2022-10-18T04:41:28;3.07;;;1.13;;
10430;SDS011;5262;59.958;17.726;2022-10-18T04:43:53;4.57;;;1.13;;
10430;SDS011;5262;59.958;17.726;2022-10-18T04:46:19;4.33;;;1.40;;
10430;SDS011;5262;59.958;17.726;2022-10-18T04:48:44;2.17;;;0.87;;
10430;SDS011;5262;59.958;17.726;2022-10-18T04:51:10;2.53;;;1.17;;
10430;SDS011;5262;59.958;17.726;2022-10-18T04:53:36;4.10;;;1.40;;
10430;SDS011;5262;59.958;17.726;2022-10-18T04:56:01;6.07;;;1.40;;
10430;SDS011;5262;59.958;17.726;2022-10-18T04:58:27;2.33;;;1.00;;
10430;SDS011;5262;59.958;17.726;2022-10-18T05:00:53;6.10;;;1.17;;
10430;SDS011;5262;59.958;17.726;2022-10-18T05:03:18;3.10;;;1.10;;
10430;SDS011;5262;59.958;17.726;2022-10-18T05:05:44;2.87;;;1.07;;
10430;SDS011;5262;59.958;17.726;2022-10-18T05:08:10;2.43;;;1.00;;
10430;SDS011;5262;59.958;17.726;2022-10-18T05:10:36;6.87;;;1.00;;
10430;SDS011;5262;59.958;17.726;2022-10-18T05:13:02;3.33;;;0.70;;
10430;SDS011;5262;59.958;17.726;2022-10-18T05:15:28;3.20;;;1.00;;
10430;SDS011;5262;59.958;17.726;2022-10-18T05:17:54;2.93;;;0.90;;
10430;SDS011;5262;59.958;17.726;2022-10-18T05:20:19;8.90;;;1.00;;
10430;SDS011;5262;59.958;17.726;2022-10-18T05:22:45;2.97;;;1.00;;
10430;SDS011;5262;59.958;17.726;2022-10-18T05:25:11;7.10;;;1.13;;
10430;SDS011;5262;59.958;17.726;2022-10-18T05:27:36;4.20;;;1.03;;
10430;SDS011;5262;59.958;17.726;2022-10-18T05:30:02;3.10;;;0.90;;
10430;SDS011;5262;59.958;17.726;2022-10-18T05:32:28;2.13;;;0.90;;
10430;SDS011;5262;59.958;17.726;2022-10-18T05:34:54;3.97;;;0.77;;
10430;SDS011;5262;59.958;17.726;2022-10-18T05:37:20;1.70;;;0.90;;
10430;SDS011;5262;59.958;17.726;2022-10-18T05:39:46;3.23;;;1.03;;
10430;SDS011;5262;59.958;17.726;2022-10-18T05:42:11;4.00;;;1.10;;
10430;SDS011;5262;59.958;17.726;2022-10-18T05:44:37;2.77;;;1.10;;
10430;SDS011;5262;59.958;17.726;2022-10-18T05:47:03;2.80;;;1.20;;
10430;SDS011;5262;59.958;17.726;2022-10-18T05:49:29;4.57;;;1.00;;
10430;SDS011;5262;59.958;17.726;2022-10-18T05:51:54;4.87;;;1.13;;
10430;SDS011;5262;59.958;17.726;2022-10-18T05:54:20;3.10;;;1.13;;
10430;SDS011;5262;59.958;17.726;2022-10-18T05:56:45;6.50;;;1.43;;
10430;SDS011;5262;59.958;17.726;2022-10-18T05:59:11;5.33;;;1.03;;
10430;SDS011;5262;59.958;17.726;2022-10-18T06:01:38;4.03;;;1.20;;
10430;SDS011;5262;59.958;17.726;2022-10-18T06:04:05;3.87;;;1.10;;
10430;SDS011;5262;59.958;17.726;2022-10-18T06:06:31;3.03;;;1.30;;
10430;SDS011;5262;59.958;17.726;2022-10-18T06:08:58;1.93;;;0.93;;
10430;SDS011;5262;59.958;17.726;2022-10-18T06:11:24;5.17;;;1.40;;
10430;SDS011;5262;59.958;17.726;2022-10-18T06:13:50;7.03;;;1.30;;
10430;SDS011;5262;59.958;17.726;2022-10-18T06:16:17;4.33;;;1.43;;
10430;SDS011;5262;59.958;17.726;2022-10-18T06:18:48;2.43;;;1.13;;
10430;SDS011;5262;59.958;17.726;2022-10-18T06:21:15;3.73;;;1.53;;
10430;SDS011;5262;59.958;17.726;2022-10-18T06:23:42;10.20;;;1.60;;
10430;SDS011;5262;59.958;17.726;2022-10-18T06:26:09;2.40;;;1.33;;
10430;SDS011;5262;59.958;17.726;2022-10-18T06:28:36;2.83;;;1.37;;
10430;SDS011;5262;59.958;17.726;2022-10-18T06:31:02;5.93;;;2.20;;
10430;SDS011;5262;59.958;17.726;2022-10-18T06:33:30;4.50;;;1.60;;
10430;SDS011;5262;59.958;17.726;2022-10-18T06:35:57;2.90;;;1.30;;
10430;SDS011;5262;59.958;17.726;2022-10-18T06:38:28;4.17;;;1.60;;
10430;SDS011;5262;59.958;17.726;2022-10-18T06:40:54;6.20;;;1.40;;
10430;SDS011;5262;59.958;17.726;2022-10-18T06:43:21;4.87;;;1.80;;
10430;SDS011;5262;59.958;17.726;2022-10-18T06:45:48;2.50;;;1.70;;
10430;SDS011;5262;59.958;17.726;2022-10-18T06:48:14;6.73;;;1.93;;
10430;SDS011;5262;59.958;17.726;2022-10-18T06:50:40;4.37;;;2.17;;
10430;SDS011;5262;59.958;17.726;2022-10-18T06:53:06;5.20;;;2.13;;
10430;SDS011;5262;59.958;17.726;2022-10-18T06:55:33;6.37;;;2.30;;
10430;SDS011;5262;59.958;17.726;2022-10-18T06:57:59;5.10;;;2.37;;
10430;SDS011;5262;59.958;17.726;2022-10-18T07:00:24;6.37;;;2.80;;
10430;SDS011;5262;59.958;17.726;2022-10-18T07:02:50;8.13;;;3.00;;
10430;SDS011;5262;59.958;17.726;2022-10-18T07:05:16;8.13;;;3.50;;
10430;SDS011;5262;59.958;17.726;2022-10-18T07:07:42;6.87;;;3.53;;
10430;SDS011;5262;59.958;17.726;2022-10-18T07:10:07;7.07;;;3.50;;
10430;SDS011;5262;59.958;17.726;2022-10-18T07:12:34;7.90;;;2.80;;
10430;SDS011;5262;59.958;17.726;2022-10-18T07:14:59;11.33;;;3.47;;
10430;SDS011;5262;59.958;17.726;2022-10-18T07:17:25;7.00;;;3.00;;
10430;SDS011;5262;59.958;17.726;2022-10-18T07:19:51;5.80;;;2.90;;
10430;SDS011;5262;59.958;17.726;2022-10-18T07:22:17;6.90;;;3.43;;
10430;SDS011;5262;59.958;17.726;2022-10-18T07:24:42;3.93;;;2.43;;
10430;SDS011;5262;59.958;17.726;2022-10-18T07:27:08;4.97;;;1.57;;
10430;SDS011;5262;59.958;17.726;2022-10-18T07:29:33;4.27;;;1.40;;
10430;SDS011;5262;59.958;17.726;2022-10-18T07:32:02;2.60;;;1.33;;
10430;SDS011;5262;59.958;17.726;2022-10-18T07:34:28;4.03;;;1.30;;
10430;SDS011;5262;59.958;17.726;2022-10-18T07:36:53;3.77;;;1.40;;
10430;SDS011;5262;59.958;17.726;2022-10-18T07:39:19;2.33;;;1.10;;
10430;SDS011;5262;59.958;17.726;2022-10-18T07:41:45;2.03;;;1.00;;
10430;SDS011;5262;59.958;17.726;2022-10-18T07:44:11;5.17;;;1.70;;
10430;SDS011;5262;59.958;17.726;2022-10-18T07:46:36;9.47;;;2.30;;
10430;SDS011;5262;59.958;17.726;2022-10-18T07:49:02;5.07;;;2.00;;
10430;SDS011;5262;59.958;17.726;2022-10-18T07:51:28;3.83;;;1.70;;
10430;SDS011;5262;59.958;17.726;2022-10-18T07:53:56;3.03;;;1.30;;
10430;SDS011;5262;59.958;17.726;2022-10-18T07:56:26;11.47;;;2.00;;
10430;SDS011;5262;59.958;17.726;2022-10-18T07:58:52;3.00;;;1.50;;
10430;SDS011;5262;59.958;17.726;2022-10-18T08:01:20;4.03;;;1.63;;
10430;SDS011;5262;59.958;17.726;2022-10-18T08:03:47;4.40;;;1.77;;
10430;SDS011;5262;59.958;17.726;2022-10-18T08:06:13;4.07;;;2.10;;
10430;SDS011;5262;59.958;17.726;2022-10-18T08:08:42;3.03;;;1.70;;
10430;SDS011;5262;59.958;17.726;2022-10-18T08:11:09;4.30;;;1.50;;
10430;SDS011;5262;59.958;17.726;2022-10-18T08:13:37;4.70;;;1.83;;
10430;SDS011;5262;59.958;17.726;2022-10-18T08:16:07;2.10;;;1.40;;
10430;SDS011;5262;59.958;17.726;2022-10-18T08:18:38;2.83;;;1.37;;
10430;SDS011;5262;59.958;17.726;2022-10-18T08:21:05;3.30;;;1.50;;
10430;SDS011;5262;59.958;17.726;2022-10-18T08:23:32;4.50;;;1.33;;
10430;SDS011;5262;59.958;17.726;2022-10-18T08:26:06;3.43;;;1.03;;
10430;SDS011;5262;59.958;17.726;2022-10-18T08:28:33;3.07;;;1.20;;
10430;SDS011;5262;59.958;17.726;2022-10-18T08:31:02;5.17;;;0.90;;
10430;SDS011;5262;59.958;17.726;2022-10-18T08:33:29;1.10;;;0.73;;
10430;SDS011;5262;59.958;17.726;2022-10-18T08:35:58;2.13;;;0.90;;
10430;SDS011;5262;59.958;17.726;2022-10-18T08:38:27;5.60;;;1.23;;
10430;SDS011;5262;59.958;17.726;2022-10-18T08:40:54;2.67;;;0.80;;
10430;SDS011;5262;59.958;17.726;2022-10-18T08:43:33;2.87;;;0.90;;
10430;SDS011;5262;59.958;17.726;2022-10-18T08:46:10;3.73;;;0.70;;
10430;SDS011;5262;59.958;17.726;2022-10-18T08:48:41;2.20;;;0.80;;
10430;SDS011;5262;59.958;17.726;2022-10-18T08:51:18;1.33;;;0.60;;
10430;SDS011;5262;59.958;17.726;2022-10-18T08:54:16;2.57;;;1.10;;
10430;SDS011;5262;59.958;17.726;2022-10-18T08:56:59;2.53;;;0.63;;
10430;SDS011;5262;59.958;17.726;2022-10-18T08:59:31;2.93;;;0.80;;
10430;SDS011;5262;59.958;17.726;2022-10-18T09:10:39;3.10;;;0.70;;
10430;SDS011;5262;59.958;17.726;2022-10-18T09:16:02;1.03;;;0.50;;
10430;SDS011;5262;59.958;17.726;2022-10-18T09:26:45;1.10;;;0.47;;
10430;SDS011;5262;59.958;17.726;2022-10-18T09:31:56;2.67;;;0.50;;
10430;SDS011;5262;59.958;17.726;2022-10-18T09:34:41;4.30;;;0.60;;
10430;SDS011;5262;59.958;17.726;2022-10-18T09:37:26;2.30;;;0.60;;
10430;SDS011;5262;59.958;17.726;2022-10-18T09:40:13;1.10;;;0.70;;
10430;SDS011;5262;59.958;17.726;2022-10-18T09:42:50;2.30;;;0.47;;
10430;SDS011;5262;59.958;17.726;2022-10-18T09:45:42;1.50;;;0.60;;
10430;SDS011;5262;59.958;17.726;2022-10-18T09:51:09;2.10;;;0.47;;
10430;SDS011;5262;59.958;17.726;2022-10-18T09:57:38;1.33;;;0.30;;
10430;SDS011;5262;59.958;17.726;2022-10-18T10:00:33;0.80;;;0.40;;
10430;SDS011;5262;59.958;17.726;2022-10-18T10:03:24;1.50;;;0.50;;
10430;SDS011;5262;59.958;17.726;2022-10-18T10:11:43;1.70;;;0.30;;
10430;SDS011;5262;59.958;17.726;2022-10-18T10:14:31;0.97;;;0.53;;
10430;SDS011;5262;59.958;17.726;2022-10-18T10:17:28;0.80;;;0.60;;
10430;SDS011;5262;59.958;17.726;2022-10-18T10:19:57;3.30;;;0.50;;
10430;SDS011;5262;59.958;17.726;2022-10-18T10:22:33;0.97;;;0.40;;
10430;SDS011;5262;59.958;17.726;2022-10-18T10:25:00;0.73;;;0.33;;
10430;SDS011;5262;59.958;17.726;2022-10-18T10:27:37;3.63;;;0.50;;
10430;SDS011;5262;59.958;17.726;2022-10-18T10:30:21;0.90;;;0.53;;
10430;SDS011;5262;59.958;17.726;2022-10-18T10:32:53;0.97;;;0.40;;
10430;SDS011;5262;59.958;17.726;2022-10-18T10:35:38;0.50;;;0.37;;
10430;SDS011;5262;59.958;17.726;2022-10-18T10:38:05;2.97;;;1.33;;
10430;SDS011;5262;59.958;17.726;2022-10-18T10:40:47;2.83;;;1.07;;
10430;SDS011;5262;59.958;17.726;2022-10-18T10:43:30;1.90;;;0.80;;
10430;SDS011;5262;59.958;17.726;2022-10-18T10:48:49;4.30;;;2.00;;
10430;SDS011;5262;59.958;17.726;2022-10-18T10:51:27;6.47;;;3.67;;
10430;SDS011;5262;59.958;17.726;2022-10-18T10:53:58;6.70;;;3.23;;
10430;SDS011;5262;59.958;17.726;2022-10-18T10:56:27;5.77;;;2.40;;
10430;SDS011;5262;59.958;17.726;2022-10-18T10:58:56;1.70;;;0.80;;
10430;SDS011;5262;59.958;17.726;2022-10-18T11:01:31;8.90;;;4.47;;
10430;SDS011;5262;59.958;17.726;2022-10-18T11:04:01;4.50;;;2.73;;
10430;SDS011;5262;59.958;17.726;2022-10-18T11:07:32;0.70;;;0.40;;
10430;SDS011;5262;59.958;17.726;2022-10-18T11:14:44;0.80;;;0.40;;
10430;SDS011;5262;59.958;17.726;2022-10-18T11:17:24;0.93;;;0.40;;
10430;SDS011;5262;59.958;17.726;2022-10-18T11:23:05;0.40;;;0.20;;
10430;SDS011;5262;59.958;17.726;2022-10-18T11:41:54;1.03;;;0.37;;
10430;SDS011;5262;59.958;17.726;2022-10-18T11:53:04;0.50;;;0.30;;
10430;SDS011;5262;59.958;17.726;2022-10-18T12:04:02;0.60;;;0.20;;
10430;SDS011;5262;59.958;17.726;2022-10-18T12:06:31;0.43;;;0.30;;
10430;SDS011;5262;59.958;17.726;2022-10-18T12:09:06;1.80;;;0.50;;
10430;SDS011;5262;59.958;17.726;2022-10-18T12:11:45;0.63;;;0.40;;
10430;SDS011;5262;59.958;17.726;2022-10-18T12:14:29;0.30;;;0.20;;
10430;SDS011;5262;59.958;17.726;2022-10-18T12:17:01;1.57;;;0.40;;
10430;SDS011;5262;59.958;17.726;2022-10-18T12:19:30;1.27;;;0.40;;
10430;SDS011;5262;59.958;17.726;2022-10-18T12:22:17;0.97;;;0.40;;
10430;SDS011;5262;59.958;17.726;2022-10-18T12:24:47;1.33;;;0.60;;
10430;SDS011;5262;59.958;17.726;2022-10-18T12:27:13;0.90;;;0.40;;
10430;SDS011;5262;59.958;17.726;2022-10-18T12:29:51;0.30;;;0.20;;
10430;SDS011;5262;59.958;17.726;2022-10-18T12:32:26;2.00;;;0.47;;
10430;SDS011;5262;59.958;17.726;2022-10-18T12:34:58;3.67;;;2.37;;
10430;SDS011;5262;59.958;17.726;2022-10-18T12:43:08;1.53;;;1.30;;
10430;SDS011;5262;59.958;17.726;2022-10-18T12:46:06;7.40;;;6.80;;
10430;SDS011;5262;59.958;17.726;2022-10-18T12:49:01;9.80;;;8.87;;
10430;SDS011;5262;59.958;17.726;2022-10-18T12:51:28;59.00;;;32.17;;
10430;SDS011;5262;59.958;17.726;2022-10-18T12:58:52;21.03;;;15.87;;
10430;SDS011;5262;59.958;17.726;2022-10-18T13:07:10;5.53;;;4.30;;
10430;SDS011;5262;59.958;17.726;2022-10-18T13:12:54;1.10;;;1.00;;
10430;SDS011;5262;59.958;17.726;2022-10-18T13:15:52;0.90;;;0.60;;
10430;SDS011;5262;59.958;17.726;2022-10-18T13:18:32;0.90;;;0.63;;
10430;SDS011;5262;59.958;17.726;2022-10-18T13:26:37;1.67;;;1.33;;
10430;SDS011;5262;59.958;17.726;2022-10-18T13:31:46;3.07;;;2.10;;
10430;SDS011;5262;59.958;17.726;2022-10-18T13:37:00;31.43;;;16.03;;
10430;SDS011;5262;59.958;17.726;2022-10-18T13:39:29;18.67;;;12.40;;
10430;SDS011;5262;59.958;17.726;2022-10-18T13:44:32;1.70;;;0.80;;
10430;SDS011;5262;59.958;17.726;2022-10-18T14:00:05;9.00;;;4.47;;
10430;SDS011;5262;59.958;17.726;2022-10-18T14:02:53;5.53;;;1.70;;
10430;SDS011;5262;59.958;17.726;2022-10-18T14:08:24;3.13;;;1.80;;
10430;SDS011;5262;59.958;17.726;2022-10-18T14:13:23;7.30;;;6.07;;
10430;SDS011;5262;59.958;17.726;2022-10-18T14:15:51;3.87;;;1.60;;
10430;SDS011;5262;59.958;17.726;2022-10-18T14:18:26;1.60;;;1.00;;
10430;SDS011;5262;59.958;17.726;2022-10-18T14:21:00;0.60;;;0.60;;
10430;SDS011;5262;59.958;17.726;2022-10-18T14:23:41;2.20;;;1.60;;
10430;SDS011;5262;59.958;17.726;2022-10-18T14:26:18;5.20;;;3.83;;
10430;SDS011;5262;59.958;17.726;2022-10-18T14:28:47;1.30;;;1.00;;
10430;SDS011;5262;59.958;17.726;2022-10-18T14:31:27;2.20;;;1.20;;
10430;SDS011;5262;59.958;17.726;2022-10-18T14:33:56;3.47;;;1.93;;
10430;SDS011;5262;59.958;17.726;2022-10-18T14:36:24;5.93;;;1.77;;
10430;SDS011;5262;59.958;17.726;2022-10-18T14:39:02;12.03;;;10.00;;
10430;SDS011;5262;59.958;17.726;2022-10-18T14:41:30;3.93;;;1.87;;
10430;SDS011;5262;59.958;17.726;2022-10-18T14:46:43;0.93;;;0.77;;
10430;SDS011;5262;59.958;17.726;2022-10-18T14:49:11;1.43;;;0.80;;
10430;SDS011;5262;59.958;17.726;2022-10-18T14:51:39;0.67;;;0.60;;
10430;SDS011;5262;59.958;17.726;2022-10-18T14:54:09;1.03;;;0.77;;
10430;SDS011;5262;59.958;17.726;2022-10-18T14:56:39;1.67;;;1.33;;
10430;SDS011;5262;59.958;17.726;2022-10-18T14:59:15;2.97;;;2.10;;
10430;SDS011;5262;59.958;17.726;2022-10-18T15:04:29;2.33;;;1.70;;
10430;SDS011;5262;59.958;17.726;2022-10-18T15:07:01;3.97;;;1.97;;
10430;SDS011;5262;59.958;17.726;2022-10-18T15:09:29;2.00;;;1.80;;
10430;SDS011;5262;59.958;17.726;2022-10-18T15:11:57;1.70;;;1.60;;
10430;SDS011;5262;59.958;17.726;2022-10-18T15:14:25;1.70;;;1.40;;
10430;SDS011;5262;59.958;17.726;2022-10-18T15:16:54;2.37;;;0.90;;
10430;SDS011;5262;59.958;17.726;2022-10-18T15:19:32;1.10;;;0.87;;
10430;SDS011;5262;59.958;17.726;2022-10-18T15:22:09;3.83;;;1.40;;
10430;SDS011;5262;59.958;17.726;2022-10-18T15:24:35;4.03;;;1.63;;
10430;SDS011;5262;59.958;17.726;2022-10-18T15:29:53;2.10;;;1.90;;
10430;SDS011;5262;59.958;17.726;2022-10-18T15:32:26;2.50;;;2.00;;
10430;SDS011;5262;59.958;17.726;2022-10-18T15:34:53;5.70;;;3.03;;
10430;SDS011;5262;59.958;17.726;2022-10-18T15:37:31;12.87;;;6.20;;
10430;SDS011;5262;59.958;17.726;2022-10-18T15:42:47;11.13;;;6.47;;
10430;SDS011;5262;59.958;17.726;2022-10-18T15:45:25;14.67;;;8.57;;
10430;SDS011;5262;59.958;17.726;2022-10-18T15:48:20;12.77;;;8.20;;
10430;SDS011;5262;59.958;17.726;2022-10-18T15:50:50;16.70;;;8.63;;
10430;SDS011;5262;59.958;17.726;2022-10-18T15:58:37;15.17;;;9.23;;
10430;SDS011;5262;59.958;17.726;2022-10-18T16:01:03;15.30;;;8.90;;
10430;SDS011;5262;59.958;17.726;2022-10-18T16:03:31;14.17;;;7.63;;
10430;SDS011;5262;59.958;17.726;2022-10-18T16:06:02;9.33;;;5.83;;
10430;SDS011;5262;59.958;17.726;2022-10-18T16:08:35;12.20;;;7.23;;
10430;SDS011;5262;59.958;17.726;2022-10-18T16:11:12;31.50;;;16.97;;
10430;SDS011;5262;59.958;17.726;2022-10-18T16:13:39;44.50;;;24.17;;
10430;SDS011;5262;59.958;17.726;2022-10-18T16:16:05;53.63;;;30.73;;
10430;SDS011;5262;59.958;17.726;2022-10-18T16:18:31;57.00;;;33.90;;
10430;SDS011;5262;59.958;17.726;2022-10-18T16:20:57;49.27;;;29.27;;
10430;SDS011;5262;59.958;17.726;2022-10-18T16:23:24;33.27;;;20.27;;
10430;SDS011;5262;59.958;17.726;2022-10-18T16:25:52;26.57;;;14.80;;
10430;SDS011;5262;59.958;17.726;2022-10-18T16:28:22;23.40;;;15.20;;
10430;SDS011;5262;59.958;17.726;2022-10-18T16:30:56;22.20;;;13.20;;
10430;SDS011;5262;59.958;17.726;2022-10-18T16:33:24;17.53;;;11.17;;
10430;SDS011;5262;59.958;17.726;2022-10-18T16:35:50;15.43;;;10.03;;
10430;SDS011;5262;59.958;17.726;2022-10-18T16:38:21;13.57;;;9.03;;
10430;SDS011;5262;59.958;17.726;2022-10-18T16:40:48;8.57;;;5.77;;
10430;SDS011;5262;59.958;17.726;2022-10-18T16:43:14;8.57;;;6.00;;
10430;SDS011;5262;59.958;17.726;2022-10-18T16:45:39;7.10;;;5.03;;
10430;SDS011;5262;59.958;17.726;2022-10-18T16:48:05;4.80;;;3.70;;
10430;SDS011;5262;59.958;17.726;2022-10-18T16:50:31;3.80;;;3.40;;
10430;SDS011;5262;59.958;17.726;2022-10-18T16:52:57;4.27;;;2.60;;
10430;SDS011;5262;59.958;17.726;2022-10-18T16:55:22;3.47;;;2.17;;
10430;SDS011;5262;59.958;17.726;2022-10-18T16:57:49;2.67;;;2.23;;
10430;SDS011;5262;59.958;17.726;2022-10-18T17:00:19;1.73;;;1.63;;
10430;SDS011;5262;59.958;17.726;2022-10-18T17:02:46;2.53;;;1.70;;
10430;SDS011;5262;59.958;17.726;2022-10-18T17:05:13;2.80;;;2.10;;
10430;SDS011;5262;59.958;17.726;2022-10-18T17:07:40;3.33;;;2.47;;
10430;SDS011;5262;59.958;17.726;2022-10-18T17:10:06;5.50;;;3.20;;
10430;SDS011;5262;59.958;17.726;2022-10-18T17:12:32;5.30;;;3.17;;
10430;SDS011;5262;59.958;17.726;2022-10-18T17:14:57;3.77;;;2.80;;
10430;SDS011;5262;59.958;17.726;2022-10-18T17:17:23;5.73;;;2.83;;
10430;SDS011;5262;59.958;17.726;2022-10-18T17:19:49;2.87;;;2.40;;
10430;SDS011;5262;59.958;17.726;2022-10-18T17:22:14;4.93;;;3.20;;
10430;SDS011;5262;59.958;17.726;2022-10-18T17:24:40;6.57;;;4.37;;
10430;SDS011;5262;59.958;17.726;2022-10-18T17:27:05;5.30;;;3.20;;
10430;SDS011;5262;59.958;17.726;2022-10-18T17:29:31;6.50;;;4.70;;
10430;SDS011;5262;59.958;17.726;2022-10-18T17:31:57;3.23;;;2.40;;
10430;SDS011;5262;59.958;17.726;2022-10-18T17:34:22;1.50;;;1.40;;
10430;SDS011;5262;59.958;17.726;2022-10-18T17:36:48;3.97;;;1.20;;
10430;SDS011;5262;59.958;17.726;2022-10-18T17:39:13;11.53;;;9.30;;
10430;SDS011;5262;59.958;17.726;2022-10-18T17:41:39;6.37;;;4.63;;
10430;SDS011;5262;59.958;17.726;2022-10-18T17:44:05;19.23;;;12.83;;
10430;SDS011;5262;59.958;17.726;2022-10-18T17:46:30;5.80;;;4.30;;
10430;SDS011;5262;59.958;17.726;2022-10-18T17:48:56;16.80;;;9.00;;
10430;SDS011;5262;59.958;17.726;2022-10-18T17:51:22;2.23;;;1.60;;
10430;SDS011;5262;59.958;17.726;2022-10-18T17:53:47;13.63;;;6.87;;
10430;SDS011;5262;59.958;17.726;2022-10-18T17:56:13;9.33;;;6.20;;